sensor_id;sensor_type;location;lat;lon;timestamp;P1;durP1;ratioP1;P2;durP2;ratioP2
17340;SDS011;8788;49.930;8.660;2022-10-31T04:04:32;4.88;;;3.55;;
17340;SDS011;8788;49.930;8.660;2022-10-31T04:07:01;4.95;;;3.95;;
17340;SDS011;8788;49.930;8.660;2022-10-31T04:09:29;6.03;;;3.25;;
17340;SDS011;8788;49.930;8.660;2022-10-31T04:11:59;5.47;;;3.10;;
17340;SDS011;8788;49.930;8.660;2022-10-31T04:14:46;6.00;;;3.35;;
17340;SDS011;8788;49.930;8.660;2022-10-31T04:17:17;6.63;;;2.95;;
17340;SDS011;8788;49.930;8.660;2022-10-31T04:19:49;7.68;;;3.40;;
17340;SDS011;8788;49.930;8.660;2022-10-31T04:22:17;7.22;;;3.53;;
17340;SDS011;8788;49.930;8.660;2022-10-31T04:24:44;8.52;;;3.35;;
17340;SDS011;8788;49.930;8.660;2022-10-31T04:27:14;8.00;;;3.67;;
17340;SDS011;8788;49.930;8.660;2022-10-31T04:29:41;5.72;;;3.53;;
17340;SDS011;8788;49.930;8.660;2022-10-31T04:32:08;8.07;;;3.72;;
17340;SDS011;8788;49.930;8.660;2022-10-31T04:34:36;6.15;;;3.92;;
17340;SDS011;8788;49.930;8.660;2022-10-31T04:37:05;5.55;;;4.18;;
17340;SDS011;8788;49.930;8.660;2022-10-31T04:39:33;8.70;;;3.50;;
17340;SDS011;8788;49.930;8.660;2022-10-31T04:42:28;4.53;;;3.17;;
17340;SDS011;8788;49.930;8.660;2022-10-31T04:45:01;4.88;;;3.40;;
17340;SDS011;8788;49.930;8.660;2022-10-31T04:47:30;9.55;;;3.80;;
17340;SDS011;8788;49.930;8.660;2022-10-31T04:49:59;5.78;;;4.32;;
17340;SDS011;8788;49.930;8.660;2022-10-31T04:52:28;11.10;;;4.45;;
17340;SDS011;8788;49.930;8.660;2022-10-31T04:54:56;7.07;;;4.47;;
17340;SDS011;8788;49.930;8.660;2022-10-31T04:57:41;8.32;;;3.65;;
17340;SDS011;8788;49.930;8.660;2022-10-31T05:00:10;11.57;;;4.88;;
17340;SDS011;8788;49.930;8.660;2022-10-31T05:02:47;10.70;;;4.00;;
17340;SDS011;8788;49.930;8.660;2022-10-31T05:05:15;9.10;;;3.75;;
17340;SDS011;8788;49.930;8.660;2022-10-31T05:07:46;6.03;;;4.50;;
17340;SDS011;8788;49.930;8.660;2022-10-31T05:10:15;7.90;;;4.13;;
17340;SDS011;8788;49.930;8.660;2022-10-31T05:12:45;7.70;;;4.45;;
17340;SDS011;8788;49.930;8.660;2022-10-31T05:15:43;12.02;;;4.80;;
17340;SDS011;8788;49.930;8.660;2022-10-31T05:18:39;5.20;;;4.20;;
17340;SDS011;8788;49.930;8.660;2022-10-31T05:21:25;8.63;;;4.70;;
17340;SDS011;8788;49.930;8.660;2022-10-31T05:23:59;8.18;;;4.80;;
17340;SDS011;8788;49.930;8.660;2022-10-31T05:26:27;8.90;;;5.63;;
17340;SDS011;8788;49.930;8.660;2022-10-31T05:28:54;9.40;;;6.22;;
17340;SDS011;8788;49.930;8.660;2022-10-31T05:31:22;9.13;;;4.90;;
17340;SDS011;8788;49.930;8.660;2022-10-31T05:33:50;6.22;;;5.10;;
17340;SDS011;8788;49.930;8.660;2022-10-31T05:36:36;12.43;;;5.53;;
17340;SDS011;8788;49.930;8.660;2022-10-31T05:39:12;10.65;;;5.70;;
17340;SDS011;8788;49.930;8.660;2022-10-31T05:41:41;7.55;;;4.90;;
17340;SDS011;8788;49.930;8.660;2022-10-31T05:44:14;6.00;;;5.18;;
17340;SDS011;8788;49.930;8.660;2022-10-31T05:47:07;6.70;;;3.88;;
17340;SDS011;8788;49.930;8.660;2022-10-31T05:49:57;5.93;;;3.60;;
17340;SDS011;8788;49.930;8.660;2022-10-31T05:52:34;7.97;;;3.70;;
17340;SDS011;8788;49.930;8.660;2022-10-31T05:55:11;6.18;;;3.95;;
17340;SDS011;8788;49.930;8.660;2022-10-31T05:57:45;4.88;;;3.28;;
17340;SDS011;8788;49.930;8.660;2022-10-31T06:00:13;6.38;;;3.63;;
17340;SDS011;8788;49.930;8.660;2022-10-31T06:02:49;11.73;;;4.40;;
17340;SDS011;8788;49.930;8.660;2022-10-31T06:05:36;8.50;;;3.75;;
17340;SDS011;8788;49.930;8.660;2022-10-31T06:08:03;9.40;;;4.25;;
17340;SDS011;8788;49.930;8.660;2022-10-31T06:10:32;6.03;;;4.00;;
17340;SDS011;8788;49.930;8.660;2022-10-31T06:12:59;4.22;;;3.22;;
17340;SDS011;8788;49.930;8.660;2022-10-31T06:15:35;7.82;;;3.83;;
17340;SDS011;8788;49.930;8.660;2022-10-31T06:18:05;6.50;;;3.65;;
17340;SDS011;8788;49.930;8.660;2022-10-31T06:20:35;7.82;;;3.75;;
17340;SDS011;8788;49.930;8.660;2022-10-31T06:23:04;8.23;;;3.13;;
17340;SDS011;8788;49.930;8.660;2022-10-31T06:25:34;7.53;;;3.60;;
17340;SDS011;8788;49.930;8.660;2022-10-31T06:28:03;6.28;;;3.55;;
17340;SDS011;8788;49.930;8.660;2022-10-31T06:30:42;7.05;;;3.58;;
17340;SDS011;8788;49.930;8.660;2022-10-31T06:33:10;10.43;;;3.70;;
17340;SDS011;8788;49.930;8.660;2022-10-31T06:35:44;8.68;;;3.83;;
17340;SDS011;8788;49.930;8.660;2022-10-31T06:38:12;7.50;;;3.55;;
17340;SDS011;8788;49.930;8.660;2022-10-31T06:40:42;12.75;;;3.80;;
17340;SDS011;8788;49.930;8.660;2022-10-31T06:43:19;7.40;;;3.95;;
17340;SDS011;8788;49.930;8.660;2022-10-31T06:45:46;9.20;;;4.05;;
17340;SDS011;8788;49.930;8.660;2022-10-31T06:48:21;5.70;;;4.28;;
17340;SDS011;8788;49.930;8.660;2022-10-31T06:51:17;6.70;;;4.18;;
17340;SDS011;8788;49.930;8.660;2022-10-31T06:53:44;5.80;;;4.13;;
17340;SDS011;8788;49.930;8.660;2022-10-31T06:56:15;7.10;;;4.22;;
17340;SDS011;8788;49.930;8.660;2022-10-31T06:58:47;6.95;;;4.15;;
17340;SDS011;8788;49.930;8.660;2022-10-31T07:01:16;11.18;;;4.60;;
17340;SDS011;8788;49.930;8.660;2022-10-31T07:03:43;14.40;;;5.55;;
17340;SDS011;8788;49.930;8.660;2022-10-31T07:06:10;7.40;;;5.43;;
17340;SDS011;8788;49.930;8.660;2022-10-31T07:08:38;9.75;;;5.38;;
17340;SDS011;8788;49.930;8.660;2022-10-31T07:11:06;8.20;;;5.78;;
17340;SDS011;8788;49.930;8.660;2022-10-31T07:13:34;16.45;;;4.63;;
17340;SDS011;8788;49.930;8.660;2022-10-31T07:16:06;8.35;;;5.05;;
17340;SDS011;8788;49.930;8.660;2022-10-31T07:18:37;11.77;;;4.63;;
17340;SDS011;8788;49.930;8.660;2022-10-31T07:21:05;9.00;;;4.00;;
17340;SDS011;8788;49.930;8.660;2022-10-31T07:23:32;8.60;;;3.90;;
17340;SDS011;8788;49.930;8.660;2022-10-31T07:26:19;7.93;;;3.88;;
17340;SDS011;8788;49.930;8.660;2022-10-31T07:28:48;11.20;;;3.72;;
17340;SDS011;8788;49.930;8.660;2022-10-31T07:31:19;7.00;;;3.47;;
17340;SDS011;8788;49.930;8.660;2022-10-31T07:33:49;6.22;;;3.65;;
17340;SDS011;8788;49.930;8.660;2022-10-31T07:36:26;6.88;;;3.60;;
17340;SDS011;8788;49.930;8.660;2022-10-31T07:38:57;7.75;;;4.07;;
17340;SDS011;8788;49.930;8.660;2022-10-31T07:41:25;9.48;;;4.03;;
17340;SDS011;8788;49.930;8.660;2022-10-31T07:43:54;7.95;;;4.00;;
17340;SDS011;8788;49.930;8.660;2022-10-31T07:46:41;4.55;;;3.85;;
17340;SDS011;8788;49.930;8.660;2022-10-31T07:49:27;6.90;;;3.75;;
17340;SDS011;8788;49.930;8.660;2022-10-31T07:52:25;14.65;;;3.75;;
17340;SDS011;8788;49.930;8.660;2022-10-31T07:55:11;10.38;;;4.35;;
17340;SDS011;8788;49.930;8.660;2022-10-31T07:57:39;7.60;;;3.90;;
17340;SDS011;8788;49.930;8.660;2022-10-31T08:00:09;7.25;;;4.15;;
17340;SDS011;8788;49.930;8.660;2022-10-31T08:02:42;5.35;;;3.47;;
17340;SDS011;8788;49.930;8.660;2022-10-31T08:05:38;8.30;;;3.90;;
17340;SDS011;8788;49.930;8.660;2022-10-31T08:08:35;8.40;;;3.65;;
17340;SDS011;8788;49.930;8.660;2022-10-31T08:11:03;7.85;;;3.92;;
17340;SDS011;8788;49.930;8.660;2022-10-31T08:13:30;9.50;;;4.28;;
17340;SDS011;8788;49.930;8.660;2022-10-31T08:15:59;5.63;;;3.33;;
17340;SDS011;8788;49.930;8.660;2022-10-31T08:18:29;6.95;;;3.50;;
17340;SDS011;8788;49.930;8.660;2022-10-31T08:20:57;6.72;;;4.10;;
17340;SDS011;8788;49.930;8.660;2022-10-31T08:23:24;8.07;;;4.78;;
17340;SDS011;8788;49.930;8.660;2022-10-31T08:25:53;9.52;;;3.72;;
17340;SDS011;8788;49.930;8.660;2022-10-31T08:28:21;9.52;;;4.00;;
17340;SDS011;8788;49.930;8.660;2022-10-31T08:30:51;7.70;;;3.80;;
17340;SDS011;8788;49.930;8.660;2022-10-31T08:33:37;6.68;;;3.97;;
17340;SDS011;8788;49.930;8.660;2022-10-31T08:36:28;6.35;;;3.55;;
17340;SDS011;8788;49.930;8.660;2022-10-31T08:39:01;4.25;;;3.50;;
17340;SDS011;8788;49.930;8.660;2022-10-31T08:41:29;5.15;;;4.13;;
17340;SDS011;8788;49.930;8.660;2022-10-31T08:43:58;7.68;;;4.30;;
17340;SDS011;8788;49.930;8.660;2022-10-31T08:46:25;5.38;;;4.22;;
17340;SDS011;8788;49.930;8.660;2022-10-31T08:48:54;5.05;;;3.63;;
17340;SDS011;8788;49.930;8.660;2022-10-31T08:51:22;6.10;;;4.18;;
17340;SDS011;8788;49.930;8.660;2022-10-31T08:53:52;8.80;;;3.83;;
17340;SDS011;8788;49.930;8.660;2022-10-31T08:56:34;8.38;;;4.30;;
17340;SDS011;8788;49.930;8.660;2022-10-31T08:59:07;5.78;;;3.92;;
17340;SDS011;8788;49.930;8.660;2022-10-31T09:01:52;4.72;;;3.90;;
17340;SDS011;8788;49.930;8.660;2022-10-31T09:04:21;6.38;;;4.00;;
17340;SDS011;8788;49.930;8.660;2022-10-31T09:06:48;6.32;;;4.43;;
17340;SDS011;8788;49.930;8.660;2022-10-31T09:09:16;4.28;;;3.45;;
17340;SDS011;8788;49.930;8.660;2022-10-31T09:11:43;6.82;;;3.33;;
17340;SDS011;8788;49.930;8.660;2022-10-31T09:14:10;7.10;;;4.10;;
17340;SDS011;8788;49.930;8.660;2022-10-31T09:16:37;4.93;;;3.25;;
17340;SDS011;8788;49.930;8.660;2022-10-31T09:19:07;6.97;;;3.63;;
17340;SDS011;8788;49.930;8.660;2022-10-31T09:21:35;7.25;;;3.55;;
17340;SDS011;8788;49.930;8.660;2022-10-31T09:24:03;4.78;;;3.42;;
17340;SDS011;8788;49.930;8.660;2022-10-31T09:26:30;5.53;;;3.40;;
17340;SDS011;8788;49.930;8.660;2022-10-31T09:29:37;7.82;;;3.92;;
17340;SDS011;8788;49.930;8.660;2022-10-31T09:32:09;4.07;;;3.53;;
17340;SDS011;8788;49.930;8.660;2022-10-31T09:34:41;7.93;;;4.15;;
17340;SDS011;8788;49.930;8.660;2022-10-31T09:37:11;6.00;;;3.70;;
17340;SDS011;8788;49.930;8.660;2022-10-31T09:39:39;7.65;;;4.20;;
17340;SDS011;8788;49.930;8.660;2022-10-31T09:42:26;9.32;;;4.72;;
17340;SDS011;8788;49.930;8.660;2022-10-31T09:45:15;7.50;;;3.38;;
17340;SDS011;8788;49.930;8.660;2022-10-31T09:47:52;6.40;;;3.40;;
17340;SDS011;8788;49.930;8.660;2022-10-31T09:50:35;4.72;;;3.03;;
17340;SDS011;8788;49.930;8.660;2022-10-31T09:53:29;6.85;;;3.65;;
17340;SDS011;8788;49.930;8.660;2022-10-31T09:56:02;4.75;;;3.53;;
17340;SDS011;8788;49.930;8.660;2022-10-31T09:58:35;6.80;;;3.92;;
17340;SDS011;8788;49.930;8.660;2022-10-31T10:01:11;6.43;;;4.50;;
17340;SDS011;8788;49.930;8.660;2022-10-31T10:03:46;4.13;;;3.53;;
17340;SDS011;8788;49.930;8.660;2022-10-31T10:06:51;5.00;;;3.63;;
17340;SDS011;8788;49.930;8.660;2022-10-31T10:09:56;6.43;;;3.67;;
17340;SDS011;8788;49.930;8.660;2022-10-31T10:15:41;6.32;;;3.65;;
17340;SDS011;8788;49.930;8.660;2022-10-31T10:18:22;4.85;;;3.22;;
17340;SDS011;8788;49.930;8.660;2022-10-31T10:21:02;6.53;;;3.75;;
17340;SDS011;8788;49.930;8.660;2022-10-31T10:23:40;15.23;;;4.25;;
17340;SDS011;8788;49.930;8.660;2022-10-31T10:26:19;6.45;;;3.83;;
17340;SDS011;8788;49.930;8.660;2022-10-31T10:28:47;8.40;;;3.55;;
17340;SDS011;8788;49.930;8.660;2022-10-31T10:31:19;6.65;;;3.50;;
17340;SDS011;8788;49.930;8.660;2022-10-31T10:33:54;5.72;;;4.10;;
17340;SDS011;8788;49.930;8.660;2022-10-31T10:36:29;9.77;;;3.42;;
17340;SDS011;8788;49.930;8.660;2022-10-31T10:39:02;6.05;;;3.30;;
17340;SDS011;8788;49.930;8.660;2022-10-31T10:41:36;7.53;;;3.50;;
17340;SDS011;8788;49.930;8.660;2022-10-31T10:44:08;10.32;;;2.97;;
17340;SDS011;8788;49.930;8.660;2022-10-31T10:46:40;5.90;;;3.05;;
17340;SDS011;8788;49.930;8.660;2022-10-31T10:49:26;6.70;;;3.00;;
17340;SDS011;8788;49.930;8.660;2022-10-31T10:52:02;5.88;;;3.70;;
17340;SDS011;8788;49.930;8.660;2022-10-31T10:54:41;6.50;;;3.45;;
17340;SDS011;8788;49.930;8.660;2022-10-31T10:57:20;6.82;;;3.25;;
17340;SDS011;8788;49.930;8.660;2022-10-31T10:59:52;5.32;;;2.97;;
17340;SDS011;8788;49.930;8.660;2022-10-31T11:02:20;6.07;;;2.78;;
17340;SDS011;8788;49.930;8.660;2022-10-31T11:04:50;7.70;;;3.00;;
17340;SDS011;8788;49.930;8.660;2022-10-31T11:07:18;8.63;;;2.97;;
17340;SDS011;8788;49.930;8.660;2022-10-31T11:09:46;6.15;;;2.38;;
17340;SDS011;8788;49.930;8.660;2022-10-31T11:12:16;5.40;;;3.42;;
17340;SDS011;8788;49.930;8.660;2022-10-31T11:14:48;7.38;;;3.10;;
17340;SDS011;8788;49.930;8.660;2022-10-31T11:17:20;5.28;;;3.22;;
17340;SDS011;8788;49.930;8.660;2022-10-31T11:20:05;6.43;;;2.80;;
17340;SDS011;8788;49.930;8.660;2022-10-31T11:22:59;5.63;;;2.70;;
17340;SDS011;8788;49.930;8.660;2022-10-31T11:25:29;4.38;;;2.55;;
17340;SDS011;8788;49.930;8.660;2022-10-31T11:28:00;7.28;;;3.15;;
17340;SDS011;8788;49.930;8.660;2022-10-31T11:30:29;5.80;;;2.75;;
17340;SDS011;8788;49.930;8.660;2022-10-31T11:32:57;6.93;;;3.20;;
17340;SDS011;8788;49.930;8.660;2022-10-31T11:35:25;6.25;;;2.80;;
17340;SDS011;8788;49.930;8.660;2022-10-31T11:37:53;6.38;;;2.90;;
17340;SDS011;8788;49.930;8.660;2022-10-31T11:40:24;3.35;;;2.40;;
17340;SDS011;8788;49.930;8.660;2022-10-31T11:42:52;6.00;;;2.80;;
17340;SDS011;8788;49.930;8.660;2022-10-31T11:45:28;7.78;;;3.05;;
17340;SDS011;8788;49.930;8.660;2022-10-31T11:47:59;5.68;;;2.85;;
17340;SDS011;8788;49.930;8.660;2022-10-31T11:50:29;3.83;;;2.75;;
17340;SDS011;8788;49.930;8.660;2022-10-31T11:52:59;3.90;;;2.75;;
17340;SDS011;8788;49.930;8.660;2022-10-31T11:55:32;4.38;;;2.42;;
17340;SDS011;8788;49.930;8.660;2022-10-31T11:58:00;6.13;;;2.83;;
17340;SDS011;8788;49.930;8.660;2022-10-31T12:00:30;3.83;;;2.40;;
17340;SDS011;8788;49.930;8.660;2022-10-31T12:03:10;7.47;;;3.30;;
17340;SDS011;8788;49.930;8.660;2022-10-31T12:05:40;6.72;;;2.88;;
17340;SDS011;8788;49.930;8.660;2022-10-31T12:08:11;6.50;;;2.55;;
17340;SDS011;8788;49.930;8.660;2022-10-31T12:10:42;4.38;;;2.17;;
17340;SDS011;8788;49.930;8.660;2022-10-31T12:13:26;7.68;;;2.70;;
17340;SDS011;8788;49.930;8.660;2022-10-31T12:16:09;8.13;;;2.83;;
17340;SDS011;8788;49.930;8.660;2022-10-31T12:18:53;8.15;;;2.72;;
17340;SDS011;8788;49.930;8.660;2022-10-31T12:21:33;3.88;;;2.60;;
17340;SDS011;8788;49.930;8.660;2022-10-31T12:24:14;9.32;;;3.03;;
17340;SDS011;8788;49.930;8.660;2022-10-31T12:26:49;5.43;;;2.50;;
17340;SDS011;8788;49.930;8.660;2022-10-31T12:29:32;5.80;;;2.60;;
17340;SDS011;8788;49.930;8.660;2022-10-31T12:32:24;5.43;;;2.50;;
17340;SDS011;8788;49.930;8.660;2022-10-31T12:35:03;4.93;;;2.75;;
17340;SDS011;8788;49.930;8.660;2022-10-31T12:37:58;3.33;;;2.63;;
17340;SDS011;8788;49.930;8.660;2022-10-31T12:40:51;5.18;;;2.60;;
17340;SDS011;8788;49.930;8.660;2022-10-31T12:43:32;7.97;;;3.08;;
17340;SDS011;8788;49.930;8.660;2022-10-31T12:46:06;7.22;;;3.15;;
17340;SDS011;8788;49.930;8.660;2022-10-31T12:49:01;3.95;;;2.38;;
17340;SDS011;8788;49.930;8.660;2022-10-31T12:51:47;6.22;;;2.53;;
17340;SDS011;8788;49.930;8.660;2022-10-31T12:54:32;5.18;;;2.47;;
17340;SDS011;8788;49.930;8.660;2022-10-31T12:57:25;7.28;;;2.47;;
17340;SDS011;8788;49.930;8.660;2022-10-31T12:59:57;6.28;;;2.55;;
17340;SDS011;8788;49.930;8.660;2022-10-31T13:02:31;7.43;;;2.88;;
17340;SDS011;8788;49.930;8.660;2022-10-31T13:05:05;17.48;;;9.68;;
17340;SDS011;8788;49.930;8.660;2022-10-31T13:07:41;6.22;;;3.28;;
17340;SDS011;8788;49.930;8.660;2022-10-31T13:10:15;6.53;;;4.03;;
17340;SDS011;8788;49.930;8.660;2022-10-31T13:12:46;18.65;;;11.40;;
17340;SDS011;8788;49.930;8.660;2022-10-31T13:15:17;9.30;;;4.57;;
17340;SDS011;8788;49.930;8.660;2022-10-31T13:17:46;7.38;;;3.70;;
17340;SDS011;8788;49.930;8.660;2022-10-31T13:20:19;4.43;;;2.67;;
17340;SDS011;8788;49.930;8.660;2022-10-31T13:22:51;6.55;;;4.20;;
17340;SDS011;8788;49.930;8.660;2022-10-31T13:25:22;11.73;;;4.95;;
17340;SDS011;8788;49.930;8.660;2022-10-31T13:27:53;7.68;;;3.13;;
17340;SDS011;8788;49.930;8.660;2022-10-31T13:30:23;10.00;;;3.72;;
17340;SDS011;8788;49.930;8.660;2022-10-31T13:32:54;5.97;;;3.67;;
17340;SDS011;8788;49.930;8.660;2022-10-31T13:35:29;3.95;;;2.65;;
17340;SDS011;8788;49.930;8.660;2022-10-31T13:38:17;7.07;;;4.03;;
17340;SDS011;8788;49.930;8.660;2022-10-31T13:40:51;4.80;;;2.67;;
17340;SDS011;8788;49.930;8.660;2022-10-31T13:43:23;4.57;;;2.92;;
17340;SDS011;8788;49.930;8.660;2022-10-31T13:45:58;5.65;;;2.53;;
17340;SDS011;8788;49.930;8.660;2022-10-31T13:48:35;4.00;;;2.58;;
17340;SDS011;8788;49.930;8.660;2022-10-31T13:51:08;7.63;;;2.60;;
17340;SDS011;8788;49.930;8.660;2022-10-31T13:53:41;5.93;;;3.00;;
17340;SDS011;8788;49.930;8.660;2022-10-31T13:56:15;6.53;;;3.17;;
17340;SDS011;8788;49.930;8.660;2022-10-31T14:01:32;5.40;;;3.40;;
17340;SDS011;8788;49.930;8.660;2022-10-31T14:04:04;4.88;;;2.72;;
17340;SDS011;8788;49.930;8.660;2022-10-31T14:06:41;7.18;;;3.60;;
17340;SDS011;8788;49.930;8.660;2022-10-31T14:09:19;5.75;;;2.92;;
17340;SDS011;8788;49.930;8.660;2022-10-31T14:11:50;2.92;;;2.55;;
17340;SDS011;8788;49.930;8.660;2022-10-31T14:14:18;5.40;;;3.05;;
17340;SDS011;8788;49.930;8.660;2022-10-31T14:16:52;10.80;;;2.92;;
17340;SDS011;8788;49.930;8.660;2022-10-31T14:19:21;8.98;;;3.20;;
17340;SDS011;8788;49.930;8.660;2022-10-31T14:21:50;5.05;;;2.90;;
17340;SDS011;8788;49.930;8.660;2022-10-31T14:24:30;6.68;;;2.60;;
17340;SDS011;8788;49.930;8.660;2022-10-31T14:27:02;6.43;;;3.58;;
17340;SDS011;8788;49.930;8.660;2022-10-31T14:29:33;8.30;;;3.67;;
17340;SDS011;8788;49.930;8.660;2022-10-31T14:32:05;5.35;;;3.05;;
17340;SDS011;8788;49.930;8.660;2022-10-31T14:34:40;6.53;;;3.60;;
17340;SDS011;8788;49.930;8.660;2022-10-31T14:37:23;11.43;;;3.25;;
17340;SDS011;8788;49.930;8.660;2022-10-31T14:40:18;9.23;;;3.63;;
17340;SDS011;8788;49.930;8.660;2022-10-31T14:45:53;5.45;;;2.95;;
17340;SDS011;8788;49.930;8.660;2022-10-31T14:48:38;8.57;;;3.10;;
17340;SDS011;8788;49.930;8.660;2022-10-31T14:51:14;5.70;;;3.13;;
17340;SDS011;8788;49.930;8.660;2022-10-31T14:53:48;5.30;;;3.35;;
17340;SDS011;8788;49.930;8.660;2022-10-31T14:56:19;3.85;;;3.22;;
17340;SDS011;8788;49.930;8.660;2022-10-31T14:58:49;8.20;;;4.82;;
17340;SDS011;8788;49.930;8.660;2022-10-31T15:01:21;6.82;;;3.08;;
17340;SDS011;8788;49.930;8.660;2022-10-31T15:03:51;5.63;;;3.45;;
17340;SDS011;8788;49.930;8.660;2022-10-31T15:06:20;7.65;;;2.80;;
17340;SDS011;8788;49.930;8.660;2022-10-31T15:08:51;5.68;;;2.88;;
17340;SDS011;8788;49.930;8.660;2022-10-31T15:11:20;6.10;;;3.35;;
17340;SDS011;8788;49.930;8.660;2022-10-31T15:13:50;7.47;;;2.92;;
17340;SDS011;8788;49.930;8.660;2022-10-31T15:16:21;3.65;;;2.55;;
17340;SDS011;8788;49.930;8.660;2022-10-31T15:18:52;5.25;;;3.67;;
17340;SDS011;8788;49.930;8.660;2022-10-31T15:21:21;5.97;;;3.10;;
17340;SDS011;8788;49.930;8.660;2022-10-31T15:23:52;6.00;;;3.25;;
17340;SDS011;8788;49.930;8.660;2022-10-31T15:26:21;5.63;;;3.70;;
17340;SDS011;8788;49.930;8.660;2022-10-31T15:29:00;8.52;;;3.75;;
17340;SDS011;8788;49.930;8.660;2022-10-31T15:31:29;5.30;;;2.95;;
17340;SDS011;8788;49.930;8.660;2022-10-31T15:33:58;6.28;;;3.40;;
17340;SDS011;8788;49.930;8.660;2022-10-31T15:36:28;6.75;;;4.03;;
17340;SDS011;8788;49.930;8.660;2022-10-31T15:38:57;4.53;;;3.17;;
17340;SDS011;8788;49.930;8.660;2022-10-31T15:41:26;5.60;;;3.15;;
17340;SDS011;8788;49.930;8.660;2022-10-31T15:44:00;6.45;;;3.72;;
17340;SDS011;8788;49.930;8.660;2022-10-31T15:46:31;4.72;;;2.83;;
17340;SDS011;8788;49.930;8.660;2022-10-31T15:48:58;10.20;;;3.75;;
17340;SDS011;8788;49.930;8.660;2022-10-31T15:51:27;6.03;;;3.88;;
17340;SDS011;8788;49.930;8.660;2022-10-31T15:53:58;7.32;;;3.80;;
17340;SDS011;8788;49.930;8.660;2022-10-31T15:56:27;10.35;;;3.63;;
17340;SDS011;8788;49.930;8.660;2022-10-31T15:58:57;7.50;;;4.22;;
17340;SDS011;8788;49.930;8.660;2022-10-31T16:01:26;9.82;;;3.67;;
17340;SDS011;8788;49.930;8.660;2022-10-31T16:03:58;5.20;;;3.38;;
17340;SDS011;8788;49.930;8.660;2022-10-31T16:06:27;9.52;;;3.63;;
17340;SDS011;8788;49.930;8.660;2022-10-31T16:08:55;7.97;;;3.60;;
17340;SDS011;8788;49.930;8.660;2022-10-31T16:11:24;6.28;;;3.40;;
17340;SDS011;8788;49.930;8.660;2022-10-31T16:13:59;13.10;;;3.75;;
17340;SDS011;8788;49.930;8.660;2022-10-31T16:16:29;7.78;;;3.55;;
17340;SDS011;8788;49.930;8.660;2022-10-31T16:18:58;5.65;;;3.22;;
17340;SDS011;8788;49.930;8.660;2022-10-31T16:21:28;7.05;;;3.70;;
17340;SDS011;8788;49.930;8.660;2022-10-31T16:23:57;15.90;;;6.75;;
17340;SDS011;8788;49.930;8.660;2022-10-31T16:26:28;7.88;;;4.35;;
17340;SDS011;8788;49.930;8.660;2022-10-31T16:28:56;7.50;;;3.80;;
17340;SDS011;8788;49.930;8.660;2022-10-31T16:31:28;6.18;;;3.78;;
17340;SDS011;8788;49.930;8.660;2022-10-31T16:34:04;7.30;;;3.55;;
17340;SDS011;8788;49.930;8.660;2022-10-31T16:36:36;6.50;;;4.85;;
17340;SDS011;8788;49.930;8.660;2022-10-31T16:39:05;10.40;;;4.50;;
17340;SDS011;8788;49.930;8.660;2022-10-31T16:41:34;8.48;;;3.90;;
17340;SDS011;8788;49.930;8.660;2022-10-31T16:44:04;3.40;;;3.00;;
17340;SDS011;8788;49.930;8.660;2022-10-31T16:46:39;8.32;;;2.97;;
17340;SDS011;8788;49.930;8.660;2022-10-31T16:49:07;7.13;;;3.83;;
17340;SDS011;8788;49.930;8.660;2022-10-31T16:51:34;4.38;;;3.17;;
17340;SDS011;8788;49.930;8.660;2022-10-31T16:54:01;6.63;;;3.67;;
17340;SDS011;8788;49.930;8.660;2022-10-31T16:56:29;8.85;;;3.60;;
17340;SDS011;8788;49.930;8.660;2022-10-31T16:59:01;5.35;;;3.28;;
17340;SDS011;8788;49.930;8.660;2022-10-31T17:01:30;7.78;;;3.95;;
17340;SDS011;8788;49.930;8.660;2022-10-31T17:03:58;7.57;;;3.92;;
17340;SDS011;8788;49.930;8.660;2022-10-31T17:06:25;5.38;;;3.60;;
17340;SDS011;8788;49.930;8.660;2022-10-31T17:08:52;7.28;;;3.63;;
17340;SDS011;8788;49.930;8.660;2022-10-31T17:11:21;4.35;;;3.47;;
17340;SDS011;8788;49.930;8.660;2022-10-31T17:13:50;5.63;;;3.22;;
17340;SDS011;8788;49.930;8.660;2022-10-31T17:16:19;5.05;;;3.13;;
17340;SDS011;8788;49.930;8.660;2022-10-31T17:18:46;7.03;;;3.30;;
17340;SDS011;8788;49.930;8.660;2022-10-31T17:21:15;6.93;;;4.45;;
17340;SDS011;8788;49.930;8.660;2022-10-31T17:23:44;6.03;;;3.33;;
17340;SDS011;8788;49.930;8.660;2022-10-31T17:26:11;6.78;;;3.75;;
17340;SDS011;8788;49.930;8.660;2022-10-31T17:28:38;9.80;;;3.63;;
17340;SDS011;8788;49.930;8.660;2022-10-31T17:31:07;6.55;;;3.17;;
17340;SDS011;8788;49.930;8.660;2022-10-31T17:33:40;7.22;;;4.35;;
17340;SDS011;8788;49.930;8.660;2022-10-31T17:36:07;7.97;;;5.63;;
17340;SDS011;8788;49.930;8.660;2022-10-31T17:38:36;7.20;;;4.90;;
17340;SDS011;8788;49.930;8.660;2022-10-31T17:41:03;8.57;;;4.00;;
17340;SDS011;8788;49.930;8.660;2022-10-31T17:43:31;4.78;;;3.83;;
17340;SDS011;8788;49.930;8.660;2022-10-31T17:45:58;12.32;;;4.07;;
17340;SDS011;8788;49.930;8.660;2022-10-31T17:48:25;7.88;;;4.63;;
17340;SDS011;8788;49.930;8.660;2022-10-31T17:50:54;13.90;;;5.13;;
17340;SDS011;8788;49.930;8.660;2022-10-31T17:53:27;7.90;;;5.50;;
17340;SDS011;8788;49.930;8.660;2022-10-31T17:55:58;13.20;;;8.30;;
17340;SDS011;8788;49.930;8.660;2022-10-31T17:58:26;10.75;;;7.68;;
17340;SDS011;8788;49.930;8.660;2022-10-31T18:00:53;9.98;;;6.72;;
17340;SDS011;8788;49.930;8.660;2022-10-31T18:03:20;9.77;;;5.32;;
17340;SDS011;8788;49.930;8.660;2022-10-31T18:05:51;5.80;;;4.82;;
17340;SDS011;8788;49.930;8.660;2022-10-31T18:08:23;5.90;;;4.88;;
17340;SDS011;8788;49.930;8.660;2022-10-31T18:10:51;10.18;;;7.32;;
17340;SDS011;8788;49.930;8.660;2022-10-31T18:13:18;14.50;;;9.45;;
17340;SDS011;8788;49.930;8.660;2022-10-31T18:15:45;11.68;;;5.82;;
17340;SDS011;8788;49.930;8.660;2022-10-31T18:18:12;6.80;;;5.53;;
17340;SDS011;8788;49.930;8.660;2022-10-31T18:20:39;8.18;;;5.03;;
17340;SDS011;8788;49.930;8.660;2022-10-31T18:23:08;9.25;;;5.03;;
17340;SDS011;8788;49.930;8.660;2022-10-31T18:25:35;7.78;;;4.85;;
17340;SDS011;8788;49.930;8.660;2022-10-31T18:28:03;5.68;;;4.15;;
17340;SDS011;8788;49.930;8.660;2022-10-31T18:30:31;9.07;;;4.82;;
17340;SDS011;8788;49.930;8.660;2022-10-31T18:32:59;10.27;;;5.60;;
17340;SDS011;8788;49.930;8.660;2022-10-31T18:35:26;9.07;;;5.00;;
17340;SDS011;8788;49.930;8.660;2022-10-31T18:37:53;12.25;;;5.38;;
17340;SDS011;8788;49.930;8.660;2022-10-31T18:40:21;6.57;;;5.45;;
17340;SDS011;8788;49.930;8.660;2022-10-31T18:42:48;12.73;;;5.75;;
17340;SDS011;8788;49.930;8.660;2022-10-31T18:45:15;8.50;;;5.30;;
17340;SDS011;8788;49.930;8.660;2022-10-31T18:47:43;8.65;;;5.70;;
17340;SDS011;8788;49.930;8.660;2022-10-31T18:50:10;7.35;;;5.38;;
17340;SDS011;8788;49.930;8.660;2022-10-31T18:52:37;7.18;;;4.55;;
17340;SDS011;8788;49.930;8.660;2022-10-31T18:55:04;8.70;;;5.07;;
17340;SDS011;8788;49.930;8.660;2022-10-31T18:57:33;9.45;;;6.45;;
17340;SDS011;8788;49.930;8.660;2022-10-31T19:00:01;12.57;;;8.85;;
17340;SDS011;8788;49.930;8.660;2022-10-31T19:02:29;11.20;;;6.65;;
17340;SDS011;8788;49.930;8.660;2022-10-31T19:04:56;12.27;;;6.43;;
17340;SDS011;8788;49.930;8.660;2022-10-31T19:07:23;8.30;;;5.25;;
17340;SDS011;8788;49.930;8.660;2022-10-31T19:09:50;11.02;;;5.60;;
17340;SDS011;8788;49.930;8.660;2022-10-31T19:12:17;7.93;;;5.57;;
17340;SDS011;8788;49.930;8.660;2022-10-31T19:14:45;10.13;;;5.25;;
17340;SDS011;8788;49.930;8.660;2022-10-31T19:17:13;7.57;;;5.35;;
17340;SDS011;8788;49.930;8.660;2022-10-31T19:19:40;8.70;;;5.40;;
17340;SDS011;8788;49.930;8.660;2022-10-31T19:22:07;7.20;;;5.43;;
17340;SDS011;8788;49.930;8.660;2022-10-31T19:24:34;11.75;;;5.30;;
17340;SDS011;8788;49.930;8.660;2022-10-31T19:27:01;7.25;;;4.10;;
17340;SDS011;8788;49.930;8.660;2022-10-31T19:29:28;6.43;;;4.95;;
17340;SDS011;8788;49.930;8.660;2022-10-31T19:31:57;8.45;;;4.60;;
17340;SDS011;8788;49.930;8.660;2022-10-31T19:34:24;7.72;;;4.82;;
17340;SDS011;8788;49.930;8.660;2022-10-31T19:36:51;5.03;;;4.22;;
17340;SDS011;8788;49.930;8.660;2022-10-31T19:39:18;8.40;;;4.95;;
17340;SDS011;8788;49.930;8.660;2022-10-31T19:41:45;6.47;;;4.68;;
17340;SDS011;8788;49.930;8.660;2022-10-31T19:44:12;8.13;;;5.82;;
17340;SDS011;8788;49.930;8.660;2022-10-31T19:46:39;10.32;;;4.68;;